Time;durP1;ratioP1;P1;durP2;ratioP2;P2;SDS_P1;SDS_P2;PMS_P1;PMS_P2;Temp;Humidity;BMP_temperature;BMP_pressure;BME280_temperature;BME280_humidity;BME280_pressure;Samples;Min_cycle;Max_cycle;Signal;HPM_P1;HPM_P2
2023/10/12 00:01:57;;;;;;;0.10;0.10;;;;;;;;;;4959277;28;20053;-87
2023/10/12 00:04:23;;;;;;;0.10;0.10;;;;;;;;;;4945132;28;20081;-87
2023/10/12 00:06:51;;;;;;;0.10;0.10;;;;;;;;;;4959606;28;20046;-88
2023/10/12 00:09:19;;;;;;;0.30;0.30;;;;;;;;;;4943316;28;20038;-88
2023/10/12 00:11:57;;;;;;;0.10;0.10;;;;;;;;;;4975042;28;20093;-87
2023/10/12 00:14:23;;;;;;;0.10;0.10;;;;;;;;;;4975093;28;20110;-87
2023/10/12 00:16:52;;;;;;;0.10;0.10;;;;;;;;;;4943127;28;20045;-87
2023/10/12 00:19:18;;;;;;;0.10;0.10;;;;;;;;;;4959529;28;20042;-87
2023/10/12 00:21:44;;;;;;;0.10;0.10;;;;;;;;;;4943072;28;20038;-87
2023/10/12 00:24:15;;;;;;;0.10;0.10;;;;;;;;;;4974746;28;20133;-87
2023/10/12 00:26:42;;;;;;;0.10;0.10;;;;;;;;;;4959746;28;20046;-87
2023/10/12 00:29:08;;;;;;;0.10;0.10;;;;;;;;;;4958938;28;20042;-87
2023/10/12 00:31:39;;;;;;;0.10;0.10;;;;;;;;;;4958959;28;20054;-86
2023/10/12 00:34:05;;;;;;;0.10;0.10;;;;;;;;;;4959423;28;20042;-87
2023/10/12 00:36:36;;;;;;;0.10;0.10;;;;;;;;;;4958862;28;20129;-87
2023/10/12 00:39:09;;;;;;;0.10;0.10;;;;;;;;;;4959055;28;20137;-86
2023/10/12 00:41:36;;;;;;;0.10;0.10;;;;;;;;;;4959136;28;20522;-87
2023/10/12 00:44:18;;;;;;;0.10;0.10;;;;;;;;;;4942926;28;20039;-87
2023/10/12 00:47:28;;;;;;;0.10;0.10;;;;;;;;;;4959007;28;20054;-87
2023/10/12 00:49:40;;;;;;;0.10;0.10;;;;;;;;;;4975559;28;20042;-87
2023/10/12 00:52:12;;;;;;;0.10;0.10;;;;;;;;;;4943305;28;20041;-87
2023/10/12 00:57:05;;;;;;;0.10;0.10;;;;;;;;;;4958842;28;20218;-88
2023/10/12 00:59:31;;;;;;;0.10;0.10;;;;;;;;;;4943143;28;20046;-88
2023/10/12 01:02:11;;;;;;;0.10;0.10;;;;;;;;;;4942846;28;20093;-88
2023/10/12 01:04:39;;;;;;;0.10;0.10;;;;;;;;;;4962180;28;20054;-88
2023/10/12 01:07:06;;;;;;;0.10;0.10;;;;;;;;;;4946556;28;20434;-87
2023/10/12 01:09:43;;;;;;;0.10;0.10;;;;;;;;;;4978302;28;20484;-88
2023/10/12 01:12:18;;;;;;;0.10;0.10;;;;;;;;;;4946923;28;20044;-88
2023/10/12 01:14:47;;;;;;;0.10;0.10;;;;;;;;;;4961956;28;20082;-87
2023/10/12 01:17:34;;;;;;;0.10;0.10;;;;;;;;;;4962332;28;20057;-88
2023/10/12 01:20:10;;;;;;;0.10;0.10;;;;;;;;;;4948698;28;20097;-88
2023/10/12 01:22:39;;;;;;;0.10;0.10;;;;;;;;;;4947437;28;20380;-87
2023/10/12 01:25:11;;;;;;;0.10;0.10;;;;;;;;;;4961922;28;20039;-87
2023/10/12 01:27:43;;;;;;;0.10;0.10;;;;;;;;;;4961602;28;20557;-87
2023/10/12 01:30:15;;;;;;;0.10;0.10;;;;;;;;;;4977736;28;20050;-88
2023/10/12 01:32:41;;;;;;;0.10;0.10;;;;;;;;;;4961637;28;20038;-88
2023/10/12 01:35:10;;;;;;;0.10;0.10;;;;;;;;;;4945737;28;20038;-88
2023/10/12 01:37:55;;;;;;;0.10;0.10;;;;;;;;;;4961377;28;20089;-89
2023/10/12 01:40:24;;;;;;;0.10;0.10;;;;;;;;;;4961535;28;20129;-89
2023/10/12 01:42:50;;;;;;;0.10;0.10;;;;;;;;;;4961751;28;20046;-89
2023/10/12 01:47:52;;;;;;;0.10;0.10;;;;;;;;;;4962355;28;20129;-89
2023/10/12 01:50:18;;;;;;;0.10;0.10;;;;;;;;;;4945919;28;20050;-88
2023/10/12 01:52:46;;;;;;;0.10;0.10;;;;;;;;;;4945382;28;20046;-88
2023/10/12 01:55:19;;;;;;;0.10;0.10;;;;;;;;;;4945201;28;20039;-89
2023/10/12 01:57:54;;;;;;;0.13;0.13;;;;;;;;;;4961223;28;20419;-88
2023/10/12 02:00:27;;;;;;;0.10;0.10;;;;;;;;;;4962368;28;20049;-89
2023/10/12 02:05:46;;;;;;;0.10;0.10;;;;;;;;;;4963280;28;20043;-88
2023/10/12 02:08:16;;;;;;;0.10;0.10;;;;;;;;;;4962194;28;20038;-89
2023/10/12 02:10:55;;;;;;;0.10;0.10;;;;;;;;;;4945805;28;20146;-88
2023/10/12 02:13:24;;;;;;;0.10;0.10;;;;;;;;;;4976962;28;20474;-88
2023/10/12 02:15:50;;;;;;;0.10;0.10;;;;;;;;;;4945179;28;20042;-88
2023/10/12 02:18:19;;;;;;;0.10;0.10;;;;;;;;;;4960833;28;20101;-89
2023/10/12 02:23:36;;;;;;;0.10;0.10;;;;;;;;;;4963179;28;20488;-88
2023/10/12 02:26:28;;;;;;;0.10;0.10;;;;;;;;;;4976646;28;20495;-88
2023/10/12 02:28:53;;;;;;;0.10;0.10;;;;;;;;;;4963799;28;20060;-89
2023/10/12 02:31:22;;;;;;;0.10;0.10;;;;;;;;;;4960560;28;20475;-89
2023/10/12 02:33:48;;;;;;;0.10;0.10;;;;;;;;;;4976467;28;20042;-88
2023/10/12 02:36:18;;;;;;;0.10;0.10;;;;;;;;;;4976333;28;20403;-88
2023/10/12 02:38:44;;;;;;;0.15;0.15;;;;;;;;;;4944950;28;20376;-89
2023/10/12 02:41:13;;;;;;;0.10;0.10;;;;;;;;;;4976301;28;20042;-88
2023/10/12 02:43:43;;;;;;;0.10;0.10;;;;;;;;;;4944584;28;20108;-88
2023/10/12 02:46:21;;;;;;;0.10;0.10;;;;;;;;;;4944769;28;20035;-88
2023/10/12 02:48:48;;;;;;;0.10;0.10;;;;;;;;;;4962200;28;20042;-88
2023/10/12 02:51:16;;;;;;;0.10;0.10;;;;;;;;;;4960278;28;20048;-88
2023/10/12 02:53:42;;;;;;;0.10;0.10;;;;;;;;;;4960076;28;20125;-88
2023/10/12 02:56:09;;;;;;;0.10;0.10;;;;;;;;;;4960459;28;20136;-88
2023/10/12 02:58:35;;;;;;;0.10;0.10;;;;;;;;;;4960284;28;20443;-88
2023/10/12 03:01:13;;;;;;;0.10;0.10;;;;;;;;;;4960042;28;20101;-88
2023/10/12 03:03:47;;;;;;;0.10;0.10;;;;;;;;;;4961603;28;20042;-89
2023/10/12 03:06:15;;;;;;;0.13;0.13;;;;;;;;;;4944831;28;20080;-87
2023/10/12 03:09:14;;;;;;;0.10;0.10;;;;;;;;;;4960012;28;20483;-87
2023/10/12 03:11:32;;;;;;;0.10;0.10;;;;;;;;;;4960432;28;20381;-87
2023/10/12 03:14:16;;;;;;;0.10;0.10;;;;;;;;;;4959858;28;20062;-87
2023/10/12 03:16:43;;;;;;;0.10;0.10;;;;;;;;;;4946317;28;20048;-87
2023/10/12 03:19:22;;;;;;;0.10;0.10;;;;;;;;;;4944121;28;20045;-88
2023/10/12 03:21:51;;;;;;;0.10;0.10;;;;;;;;;;4945697;28;20046;-88
2023/10/12 03:24:21;;;;;;;0.10;0.10;;;;;;;;;;4959375;28;20038;-87
2023/10/12 03:29:28;;;;;;;0.10;0.10;;;;;;;;;;4975823;28;20042;-88
2023/10/12 03:31:58;;;;;;;0.10;0.10;;;;;;;;;;4943672;28;20038;-87
2023/10/12 03:34:46;;;;;;;0.10;0.10;;;;;;;;;;4975409;28;20056;-88
2023/10/12 03:37:14;;;;;;;0.17;0.17;;;;;;;;;;4946460;28;20128;-87
2023/10/12 03:44:54;;;;;;;0.10;0.10;;;;;;;;;;4961206;28;20715;-88
2023/10/12 03:52:19;;;;;;;0.10;0.10;;;;;;;;;;4959833;28;20046;-88
2023/10/12 03:55:16;;;;;;;0.10;0.10;;;;;;;;;;4959236;28;20411;-88
2023/10/12 03:58:00;;;;;;;0.10;0.10;;;;;;;;;;4947496;28;20043;-88
2023/10/12 04:00:31;;;;;;;0.10;0.10;;;;;;;;;;4961575;28;20050;-87
2023/10/12 04:02:58;;;;;;;0.10;0.10;;;;;;;;;;4974965;28;20046;-87
2023/10/12 04:21:22;;;;;;;0.10;0.10;;;;;;;;;;4992536;28;20050;-87
2023/10/12 04:29:08;;;;;;;0.10;0.10;;;;;;;;;;4958848;28;20046;-87
2023/10/12 04:31:40;;;;;;;0.10;0.10;;;;;;;;;;4975095;28;20038;-87
2023/10/12 04:34:07;;;;;;;0.10;0.10;;;;;;;;;;4943434;28;20050;-87
2023/10/12 04:41:53;;;;;;;0.10;0.10;;;;;;;;;;4962566;28;20050;-87
2023/10/12 04:47:05;;;;;;;0.13;0.13;;;;;;;;;;4963564;28;20104;-87
2023/10/12 04:57:32;;;;;;;0.10;0.10;;;;;;;;;;4964776;28;20050;-87
2023/10/12 05:03:22;;;;;;;0.10;0.10;;;;;;;;;;4964745;28;20521;-87
2023/10/12 05:06:03;;;;;;;0.10;0.10;;;;;;;;;;4978048;28;20388;-87
2023/10/12 05:08:31;;;;;;;0.10;0.10;;;;;;;;;;4978118;28;20530;-87
2023/10/12 05:10:57;;;;;;;0.10;0.10;;;;;;;;;;4962361;28;20073;-88
2023/10/12 05:13:23;;;;;;;0.10;0.10;;;;;;;;;;4962201;28;20054;-88
2023/10/12 05:15:55;;;;;;;0.10;0.10;;;;;;;;;;4977804;28;20495;-88
2023/10/12 05:18:25;;;;;;;0.10;0.10;;;;;;;;;;4979115;28;20046;-87
2023/10/12 05:20:51;;;;;;;0.10;0.10;;;;;;;;;;4961824;28;20549;-90
2023/10/12 05:23:17;;;;;;;0.10;0.10;;;;;;;;;;4961943;28;20046;-88
2023/10/12 05:25:48;;;;;;;0.10;0.10;;;;;;;;;;4961901;28;20042;-88
2023/10/12 05:28:15;;;;;;;0.10;0.10;;;;;;;;;;4977811;28;20042;-88
2023/10/12 05:30:55;;;;;;;0.10;0.10;;;;;;;;;;4945934;28;20435;-88
2023/10/12 05:33:38;;;;;;;0.20;0.20;;;;;;;;;;4977665;28;20550;-88
2023/10/12 05:36:08;;;;;;;0.10;0.10;;;;;;;;;;4961306;28;20050;-88
2023/10/12 05:38:35;;;;;;;0.10;0.10;;;;;;;;;;4977795;28;20394;-88
2023/10/12 05:41:02;;;;;;;0.10;0.10;;;;;;;;;;4945708;28;20046;-88
2023/10/12 05:43:30;;;;;;;0.10;0.10;;;;;;;;;;4961599;28;20137;-88
2023/10/12 05:46:01;;;;;;;0.10;0.10;;;;;;;;;;4945804;28;20484;-87
2023/10/12 05:48:27;;;;;;;0.10;0.10;;;;;;;;;;4962104;28;20498;-87
2023/10/12 05:50:53;;;;;;;0.10;0.10;;;;;;;;;;4945123;28;20050;-89
2023/10/12 05:53:20;;;;;;;0.10;0.10;;;;;;;;;;4961352;28;20411;-88
2023/10/12 05:55:47;;;;;;;0.10;0.10;;;;;;;;;;4945416;28;20504;-88
2023/10/12 05:58:15;;;;;;;0.10;0.10;;;;;;;;;;4961314;28;20129;-88
2023/10/12 06:00:45;;;;;;;0.10;0.10;;;;;;;;;;4961471;28;20046;-89
2023/10/12 06:03:15;;;;;;;0.10;0.10;;;;;;;;;;4945641;28;20046;-92
2023/10/12 06:05:44;;;;;;;0.10;0.10;;;;;;;;;;4961068;28;20050;-91
2023/10/12 06:08:12;;;;;;;0.10;0.10;;;;;;;;;;4945354;28;20042;-89
2023/10/12 06:10:41;;;;;;;0.10;0.10;;;;;;;;;;4961150;28;20388;-88
2023/10/12 06:13:11;;;;;;;0.10;0.10;;;;;;;;;;4961141;28;20042;-89
2023/10/12 06:15:40;;;;;;;0.10;0.10;;;;;;;;;;4944875;28;20042;-91
2023/10/12 06:18:13;;;;;;;0.10;0.10;;;;;;;;;;4945290;28;20039;-88
2023/10/12 06:20:42;;;;;;;0.10;0.10;;;;;;;;;;4945323;28;20484;-88
2023/10/12 06:23:08;;;;;;;0.10;0.10;;;;;;;;;;4945174;28;20042;-88
2023/10/12 06:25:38;;;;;;;0.10;0.10;;;;;;;;;;4945169;28;20373;-88
2023/10/12 06:28:14;;;;;;;0.10;0.10;;;;;;;;;;4945465;28;20039;-88
2023/10/12 06:30:46;;;;;;;0.10;0.10;;;;;;;;;;4941757;28;20484;-88
2023/10/12 06:33:17;;;;;;;;;;;;;;;;;;4941665;28;20043;-88
2023/10/12 06:35:58;;;;;;;0.10;0.10;;;;;;;;;;4941057;28;19928;-88
2023/10/12 06:38:36;;;;;;;0.10;0.10;;;;;;;;;;4927194;28;20138;-88
2023/10/12 06:41:28;;;;;;;0.10;0.10;;;;;;;;;;4926866;28;20046;-89
2023/10/12 06:46:15;;;;;;;0.10;0.10;;;;;;;;;;4957081;28;20042;-89
2023/10/12 06:48:44;;;;;;;0.10;0.10;;;;;;;;;;4944347;28;20049;-88
2023/10/12 06:51:16;;;;;;;0.10;0.10;;;;;;;;;;4976406;28;20109;-89
2023/10/12 06:53:44;;;;;;;0.10;0.10;;;;;;;;;;4959813;28;20038;-88
2023/10/12 06:56:24;;;;;;;0.10;0.10;;;;;;;;;;4976266;28;20052;-89
2023/10/12 06:59:11;;;;;;;0.10;0.10;;;;;;;;;;4945505;28;20044;-89
2023/10/12 07:01:39;;;;;;;0.10;0.10;;;;;;;;;;4945627;28;20133;-90
2023/10/12 07:04:15;;;;;;;0.10;0.10;;;;;;;;;;4942712;28;20057;-90
2023/10/12 07:07:27;;;;;;;0.10;0.10;;;;;;;;;;4977129;28;20050;-91
2023/10/12 07:09:39;;;;;;;0.10;0.10;;;;;;;;;;4955168;28;20050;-89
2023/10/12 07:12:12;;;;;;;0.10;0.10;;;;;;;;;;4960745;28;20137;-90
2023/10/12 07:14:38;;;;;;;0.10;0.10;;;;;;;;;;4959615;28;20793;-90
2023/10/12 07:17:07;;;;;;;0.10;0.10;;;;;;;;;;4959804;28;20121;-89
2023/10/12 07:19:34;;;;;;;0.10;0.10;;;;;;;;;;4944204;28;20141;-90
2023/10/12 07:22:01;;;;;;;0.10;0.10;;;;;;;;;;4960159;28;20438;-89
2023/10/12 07:24:30;;;;;;;0.10;0.10;;;;;;;;;;4960242;28;20042;-90
2023/10/12 07:27:09;;;;;;;0.10;0.10;;;;;;;;;;4993420;28;20069;-89
2023/10/12 07:29:36;;;;;;;0.10;0.10;;;;;;;;;;4945832;28;20038;-89
2023/10/12 07:32:19;;;;;;;0.10;0.10;;;;;;;;;;4944179;28;20065;-90
2023/10/12 07:34:52;;;;;;;0.20;0.20;;;;;;;;;;4945879;28;20314;-91
2023/10/12 07:37:18;;;;;;;0.10;0.10;;;;;;;;;;4944999;28;20049;-90
2023/10/12 07:39:45;;;;;;;0.10;0.10;;;;;;;;;;4943665;28;20042;-90
2023/10/12 07:42:14;;;;;;;0.10;0.10;;;;;;;;;;4959883;28;20042;-89
2023/10/12 07:44:43;;;;;;;0.20;0.20;;;;;;;;;;4943771;28;20133;-89
2023/10/12 07:47:14;;;;;;;0.10;0.10;;;;;;;;;;4959947;28;20057;-90
2023/10/12 07:49:48;;;;;;;0.10;0.10;;;;;;;;;;4960379;28;20380;-90
2023/10/12 07:54:56;;;;;;;0.10;0.10;;;;;;;;;;4960601;28;20415;-89
2023/10/12 07:57:22;;;;;;;0.10;0.10;;;;;;;;;;4959559;28;20073;-91
2023/10/12 08:02:43;;;;;;;0.10;0.10;;;;;;;;;;4960358;28;20449;-90
2023/10/12 08:05:34;;;;;;;0.10;0.10;;;;;;;;;;4961438;28;20121;-90
2023/10/12 08:13:14;;;;;;;0.20;0.20;;;;;;;;;;4963505;28;20407;-92
2023/10/12 08:15:55;;;;;;;0.10;0.10;;;;;;;;;;4948552;28;20045;-86
2023/10/12 08:23:50;;;;;;;0.10;0.10;;;;;;;;;;4964351;28;20322;-87
2023/10/12 08:32:03;;;;;;;0.10;0.10;;;;;;;;;;4965554;28;20054;-87
2023/10/12 08:39:37;;;;;;;0.10;0.10;;;;;;;;;;4962663;28;20049;-88
2023/10/12 08:42:36;;;;;;;;;;;;;;;;;;4964206;28;20050;-90
2023/10/12 08:44:58;;;;;;;0.10;0.10;;;;;;;;;;4978779;28;19977;-89
2023/10/12 08:47:40;;;;;;;0.10;0.10;;;;;;;;;;4947408;28;20098;-89
2023/10/12 08:52:51;;;;;;;0.10;0.10;;;;;;;;;;4980797;28;20118;-86
2023/10/12 08:55:24;;;;;;;0.10;0.10;;;;;;;;;;4996181;28;20450;-87
2023/10/12 08:57:56;;;;;;;0.10;0.10;;;;;;;;;;4962449;28;20039;-91
2023/10/12 09:03:03;;;;;;;0.10;0.10;;;;;;;;;;4978379;28;20049;-90
2023/10/12 09:05:30;;;;;;;0.10;0.10;;;;;;;;;;4946877;28;20065;-88
2023/10/12 09:10:55;;;;;;;0.10;0.10;;;;;;;;;;4963929;28;20047;-89
2023/10/12 09:13:22;;;;;;;0.10;0.10;;;;;;;;;;4962936;28;20138;-89
2023/10/12 09:15:54;;;;;;;0.10;0.10;;;;;;;;;;4978977;28;20050;-88
2023/10/12 09:18:21;;;;;;;0.10;0.10;;;;;;;;;;4963229;28;20046;-89
2023/10/12 09:23:36;;;;;;;0.10;0.10;;;;;;;;;;4964448;28;20069;-90
2023/10/12 09:31:13;;;;;;;0.20;0.20;;;;;;;;;;4978422;28;20038;-87
2023/10/12 09:36:24;;;;;;;0.10;0.10;;;;;;;;;;4978314;28;20129;-89
2023/10/12 09:38:55;;;;;;;0.10;0.10;;;;;;;;;;4978604;28;20081;-89
2023/10/12 09:41:25;;;;;;;0.10;0.10;;;;;;;;;;4978376;28;20550;-88
2023/10/12 09:43:54;;;;;;;0.10;0.10;;;;;;;;;;4979125;28;20070;-87
2023/10/12 09:46:22;;;;;;;0.10;0.10;;;;;;;;;;4962504;28;20089;-87
2023/10/12 09:48:48;;;;;;;0.10;0.10;;;;;;;;;;4962455;28;20048;-87
2023/10/12 09:51:18;;;;;;;0.10;0.10;;;;;;;;;;4962333;28;20061;-87
2023/10/12 09:53:57;;;;;;;0.10;0.10;;;;;;;;;;4962497;28;20054;-87
2023/10/12 09:56:28;;;;;;;0.10;0.10;;;;;;;;;;4963439;28;20517;-87
2023/10/12 09:59:07;;;;;;;0.10;0.10;;;;;;;;;;4962648;28;20130;-88
2023/10/12 10:01:49;;;;;;;0.10;0.10;;;;;;;;;;4948464;28;20093;-88
2023/10/12 10:09:46;;;;;;;0.10;0.10;;;;;;;;;;4977661;28;20604;-89
2023/10/12 10:12:15;;;;;;;0.20;0.20;;;;;;;;;;4945498;28;20034;-89
2023/10/12 10:14:44;;;;;;;0.10;0.10;;;;;;;;;;4945874;28;20053;-89
2023/10/12 10:17:20;;;;;;;0.10;0.10;;;;;;;;;;4977041;28;20046;-87
2023/10/12 10:19:51;;;;;;;0.10;0.10;;;;;;;;;;4971996;28;20038;-88
2023/10/12 10:22:21;;;;;;;0.10;0.10;;;;;;;;;;4956936;28;20086;-89
2023/10/12 10:24:50;;;;;;;0.20;0.20;;;;;;;;;;4944937;28;20333;-89
2023/10/12 10:27:16;;;;;;;0.10;0.10;;;;;;;;;;4960632;28;20451;-88
2023/10/12 10:29:56;;;;;;;0.10;0.10;;;;;;;;;;4960658;28;20046;-87
2023/10/12 10:32:38;;;;;;;0.10;0.10;;;;;;;;;;4945732;28;20042;-92
2023/10/12 10:35:12;;;;;;;;;;;;;;;;;;4941489;28;20046;-88
2023/10/12 10:37:39;;;;;;;0.10;0.10;;;;;;;;;;4956811;28;19945;-88
2023/10/12 10:40:08;;;;;;;0.10;0.10;;;;;;;;;;4957332;28;20503;-88
2023/10/12 10:42:36;;;;;;;0.10;0.10;;;;;;;;;;4957152;28;20069;-88
2023/10/12 10:45:12;;;;;;;0.10;0.10;;;;;;;;;;4941271;28;20122;-88
2023/10/12 10:47:49;;;;;;;0.10;0.10;;;;;;;;;;4941505;28;20208;-88
2023/10/12 10:50:15;;;;;;;0.10;0.10;;;;;;;;;;4940948;28;20129;-87
2023/10/12 10:52:44;;;;;;;0.10;0.10;;;;;;;;;;4941098;28;20048;-87
2023/10/12 10:55:11;;;;;;;0.10;0.10;;;;;;;;;;4925291;28;20043;-87
2023/10/12 10:57:40;;;;;;;0.10;0.10;;;;;;;;;;4940865;28;20046;-87
2023/10/12 11:00:15;;;;;;;0.10;0.10;;;;;;;;;;4941363;28;20082;-88
2023/10/12 11:02:41;;;;;;;0.10;0.10;;;;;;;;;;4956816;28;20043;-88
2023/10/12 11:05:11;;;;;;;0.10;0.10;;;;;;;;;;4940483;28;20054;-87
2023/10/12 11:07:40;;;;;;;0.10;0.10;;;;;;;;;;4925518;28;20134;-88
2023/10/12 11:10:07;;;;;;;0.10;0.10;;;;;;;;;;4940516;28;20049;-87
2023/10/12 11:12:36;;;;;;;0.10;0.10;;;;;;;;;;4956703;28;20105;-88
2023/10/12 11:15:14;;;;;;;0.10;0.10;;;;;;;;;;4925180;28;20094;-87
2023/10/12 11:18:04;;;;;;;0.10;0.10;;;;;;;;;;4926430;28;20078;-88
2023/10/12 11:23:10;;;;;;;0.10;0.10;;;;;;;;;;4941999;28;20113;-88
2023/10/12 11:25:42;;;;;;;0.10;0.10;;;;;;;;;;4940802;28;20053;-88
2023/10/12 11:28:08;;;;;;;;;;;;;;;;;;4941933;28;20043;-88
2023/10/12 11:30:42;;;;;;;0.10;0.10;;;;;;;;;;4974100;28;20272;-87
2023/10/12 11:33:09;;;;;;;0.10;0.10;;;;;;;;;;4925650;28;20101;-87
2023/10/12 11:35:41;;;;;;;0.10;0.10;;;;;;;;;;4924999;28;20043;-86
2023/10/12 11:38:15;;;;;;;0.10;0.10;;;;;;;;;;4942007;28;20054;-87
2023/10/12 11:40:41;;;;;;;0.10;0.10;;;;;;;;;;4940968;28;20373;-85
2023/10/12 11:43:07;;;;;;;0.10;0.10;;;;;;;;;;4956469;28;20183;-87
2023/10/12 11:45:33;;;;;;;0.10;0.10;;;;;;;;;;4956218;28;20409;-86
2023/10/12 11:48:17;;;;;;;0.10;0.10;;;;;;;;;;4956094;28;20135;-86
2023/10/12 11:50:45;;;;;;;0.10;0.10;;;;;;;;;;4946431;28;20035;-86
2023/10/12 11:53:12;;;;;;;0.10;0.10;;;;;;;;;;4972952;28;20053;-86
2023/10/12 11:55:40;;;;;;;0.10;0.10;;;;;;;;;;4975862;28;20329;-86
2023/10/12 11:58:07;;;;;;;0.10;0.10;;;;;;;;;;4944092;28;20039;-87
2023/10/12 12:00:44;;;;;;;0.10;0.10;;;;;;;;;;4976100;28;20395;-86
2023/10/12 12:03:10;;;;;;;0.10;0.10;;;;;;;;;;4959297;28;20101;-85
2023/10/12 12:05:36;;;;;;;0.10;0.10;;;;;;;;;;4975335;28;20371;-86
2023/10/12 12:08:13;;;;;;;0.10;0.10;;;;;;;;;;4975614;28;20058;-86
2023/10/12 12:10:46;;;;;;;0.15;0.15;;;;;;;;;;4956155;28;20551;-86
2023/10/12 12:13:12;;;;;;;0.10;0.10;;;;;;;;;;4975159;28;20049;-87
2023/10/12 12:15:45;;;;;;;0.10;0.10;;;;;;;;;;4975320;28;20038;-86
2023/10/12 12:18:29;;;;;;;;;;;;;;;;;;4960565;28;20046;-89
2023/10/12 12:20:58;;;;;;;0.10;0.10;;;;;;;;;;4992111;28;19964;-89
2023/10/12 12:23:28;;;;;;;0.10;0.10;;;;;;;;;;4975047;28;20446;-88
2023/10/12 12:26:04;;;;;;;0.10;0.10;;;;;;;;;;4943307;28;20492;-88
2023/10/12 12:28:33;;;;;;;0.10;0.10;;;;;;;;;;4960590;28;20375;-88
2023/10/12 12:31:04;;;;;;;0.10;0.10;;;;;;;;;;4974999;28;20113;-88
2023/10/12 12:33:30;;;;;;;0.10;0.10;;;;;;;;;;4959198;28;20134;-87
2023/10/12 12:36:10;;;;;;;0.10;0.10;;;;;;;;;;4959240;28;20082;-88
2023/10/12 12:41:19;;;;;;;0.10;0.10;;;;;;;;;;4974766;28;20047;-86
2023/10/12 12:43:49;;;;;;;0.10;0.10;;;;;;;;;;4974597;28;20054;-86
2023/10/12 12:46:16;;;;;;;0.20;0.20;;;;;;;;;;4958804;28;20046;-86
2023/10/12 12:48:45;;;;;;;0.10;0.10;;;;;;;;;;4958982;28;20054;-86
2023/10/12 12:51:15;;;;;;;0.10;0.10;;;;;;;;;;4975015;28;20137;-86
2023/10/12 12:53:42;;;;;;;0.10;0.10;;;;;;;;;;4959120;28;20097;-85
2023/10/12 12:56:10;;;;;;;0.10;0.10;;;;;;;;;;4958734;28;20038;-86
2023/10/12 12:58:37;;;;;;;0.10;0.10;;;;;;;;;;4958429;28;20042;-86
2023/10/12 13:01:03;;;;;;;0.10;0.10;;;;;;;;;;4977728;28;20077;-86
2023/10/12 13:03:29;;;;;;;0.10;0.10;;;;;;;;;;4977810;28;20050;-86
2023/10/12 13:05:55;;;;;;;0.10;0.10;;;;;;;;;;4945902;28;20088;-86
2023/10/12 13:08:22;;;;;;;0.10;0.10;;;;;;;;;;4962163;28;20109;-85
2023/10/12 13:10:48;;;;;;;1.08;0.95;;;;;;;;;;4978084;28;20061;-86
2023/10/12 13:13:14;;;;;;;0.20;0.20;;;;;;;;;;4946099;28;20038;-87
2023/10/12 13:15:47;;;;;;;0.10;0.10;;;;;;;;;;4978210;28;20178;-85
2023/10/12 13:18:15;;;;;;;0.10;0.10;;;;;;;;;;4947261;28;20154;-85
2023/10/12 13:20:47;;;;;;;0.10;0.10;;;;;;;;;;4946246;28;20076;-86
2023/10/12 13:23:14;;;;;;;0.10;0.10;;;;;;;;;;4962296;28;20044;-85
2023/10/12 13:25:40;;;;;;;0.10;0.10;;;;;;;;;;4961761;28;20042;-85
2023/10/12 13:28:09;;;;;;;0.10;0.10;;;;;;;;;;4995193;28;20038;-85
2023/10/12 13:30:35;;;;;;;0.20;0.20;;;;;;;;;;4977981;28;20042;-85
2023/10/12 13:33:03;;;;;;;0.10;0.10;;;;;;;;;;4977958;28;20049;-84
2023/10/12 13:35:31;;;;;;;0.10;0.10;;;;;;;;;;4961499;28;20053;-84
2023/10/12 13:38:04;;;;;;;0.10;0.10;;;;;;;;;;4945851;28;20089;-84
2023/10/12 13:40:30;;;;;;;0.10;0.10;;;;;;;;;;4977930;28;20076;-84
2023/10/12 13:43:06;;;;;;;0.10;0.10;;;;;;;;;;4945629;28;20049;-84
2023/10/12 13:45:32;;;;;;;0.10;0.10;;;;;;;;;;4961172;28;20054;-84
2023/10/12 13:47:58;;;;;;;0.10;0.10;;;;;;;;;;4961524;28;20559;-84
2023/10/12 13:50:24;;;;;;;0.10;0.10;;;;;;;;;;4977415;28;20050;-84
2023/10/12 13:52:50;;;;;;;0.10;0.10;;;;;;;;;;4977531;28;20042;-84
2023/10/12 13:55:16;;;;;;;0.10;0.10;;;;;;;;;;4977506;28;20190;-86
2023/10/12 13:57:55;;;;;;;0.10;0.10;;;;;;;;;;4977783;28;20101;-84
2023/10/12 14:00:33;;;;;;;0.10;0.10;;;;;;;;;;4977659;28;20058;-84
2023/10/12 14:03:10;;;;;;;0.10;0.10;;;;;;;;;;4977227;28;20557;-84
2023/10/12 14:05:40;;;;;;;0.10;0.10;;;;;;;;;;4946320;28;20050;-84
2023/10/12 14:08:08;;;;;;;0.10;0.10;;;;;;;;;;4961215;28;20046;-84
2023/10/12 14:10:37;;;;;;;0.10;0.10;;;;;;;;;;4945044;28;20078;-84
2023/10/12 14:13:03;;;;;;;0.10;0.10;;;;;;;;;;4961417;28;20038;-84
2023/10/12 14:15:29;;;;;;;0.10;0.10;;;;;;;;;;4976791;28;20080;-84
2023/10/12 14:17:56;;;;;;;0.10;0.10;;;;;;;;;;4977287;28;20137;-84
2023/10/12 14:20:28;;;;;;;0.10;0.10;;;;;;;;;;4961241;28;20073;-83
2023/10/12 14:22:57;;;;;;;0.10;0.10;;;;;;;;;;4977056;28;20049;-84
2023/10/12 14:25:27;;;;;;;0.10;0.10;;;;;;;;;;4976718;28;20050;-83
2023/10/12 14:27:54;;;;;;;0.10;0.10;;;;;;;;;;4976800;28;20419;-84
2023/10/12 14:30:28;;;;;;;0.10;0.10;;;;;;;;;;4976939;28;20073;-84
2023/10/12 14:32:54;;;;;;;0.10;0.10;;;;;;;;;;4961033;28;20491;-84
2023/10/12 14:35:20;;;;;;;0.22;0.20;;;;;;;;;;4976658;28;20128;-84
2023/10/12 14:37:46;;;;;;;0.10;0.10;;;;;;;;;;4994152;28;20402;-84
2023/10/12 14:40:18;;;;;;;0.10;0.10;;;;;;;;;;4960560;28;20038;-84
2023/10/12 14:42:44;;;;;;;0.10;0.10;;;;;;;;;;4960805;28;20467;-84
2023/10/12 14:45:15;;;;;;;0.10;0.10;;;;;;;;;;4960376;28;20046;-86
2023/10/12 14:47:44;;;;;;;0.10;0.10;;;;;;;;;;4993920;28;20454;-86
2023/10/12 14:50:16;;;;;;;0.10;0.10;;;;;;;;;;4960718;28;20038;-85
2023/10/12 14:52:42;;;;;;;0.10;0.10;;;;;;;;;;4976509;28;20073;-85
2023/10/12 14:55:11;;;;;;;0.10;0.10;;;;;;;;;;4960422;28;20459;-86
2023/10/12 14:57:41;;;;;;;0.10;0.10;;;;;;;;;;4960621;28;20042;-84
2023/10/12 15:00:22;;;;;;;0.10;0.10;;;;;;;;;;4960494;28;20034;-86
2023/10/12 15:02:48;;;;;;;0.10;0.10;;;;;;;;;;4946489;28;20046;-85
2023/10/12 15:05:14;;;;;;;0.10;0.10;;;;;;;;;;4960006;28;20133;-85
2023/10/12 15:07:40;;;;;;;0.22;0.22;;;;;;;;;;4960512;28;20046;-85
2023/10/12 15:10:07;;;;;;;0.10;0.10;;;;;;;;;;4960417;28;20069;-85
2023/10/12 15:12:33;;;;;;;0.20;0.20;;;;;;;;;;4944432;28;20390;-85
2023/10/12 15:15:01;;;;;;;0.10;0.10;;;;;;;;;;4959831;28;20118;-84
2023/10/12 15:17:27;;;;;;;0.10;0.10;;;;;;;;;;4975959;28;20078;-84
2023/10/12 15:19:53;;;;;;;0.10;0.10;;;;;;;;;;4975947;28;20082;-85
2023/10/12 15:22:19;;;;;;;0.10;0.10;;;;;;;;;;4977670;28;20046;-85
2023/10/12 15:24:45;;;;;;;0.10;0.10;;;;;;;;;;4960340;28;20042;-85
2023/10/12 15:27:11;;;;;;;0.10;0.10;;;;;;;;;;4993440;28;20148;-85
2023/10/12 15:29:37;;;;;;;0.10;0.10;;;;;;;;;;4975900;28;20113;-85
2023/10/12 15:32:03;;;;;;;0.10;0.10;;;;;;;;;;4975708;28;20069;-85
2023/10/12 15:34:33;;;;;;;0.10;0.10;;;;;;;;;;4975544;28;20050;-85
2023/10/12 15:37:00;;;;;;;0.10;0.10;;;;;;;;;;4959856;28;20046;-85
2023/10/12 15:39:31;;;;;;;0.10;0.10;;;;;;;;;;4975611;28;20049;-83
2023/10/12 15:41:58;;;;;;;0.10;0.10;;;;;;;;;;4975548;28;20054;-85
2023/10/12 15:44:24;;;;;;;0.10;0.10;;;;;;;;;;4975501;28;20125;-85
2023/10/12 15:46:50;;;;;;;0.10;0.10;;;;;;;;;;4975744;28;20046;-85
2023/10/12 15:49:16;;;;;;;0.10;0.10;;;;;;;;;;4975465;28;20042;-85
2023/10/12 15:51:42;;;;;;;0.10;0.10;;;;;;;;;;4975652;28;20049;-85
2023/10/12 15:54:11;;;;;;;0.10;0.10;;;;;;;;;;4975345;28;20042;-85
2023/10/12 15:56:38;;;;;;;0.10;0.10;;;;;;;;;;4943687;28;20042;-84
2023/10/12 15:59:04;;;;;;;0.10;0.10;;;;;;;;;;4992898;28;20042;-84
2023/10/12 16:01:31;;;;;;;0.10;0.10;;;;;;;;;;4975671;28;20050;-84
2023/10/12 16:03:59;;;;;;;0.20;0.20;;;;;;;;;;4959158;28;20104;-84
2023/10/12 16:06:25;;;;;;;0.10;0.10;;;;;;;;;;4958992;28;20047;-84
2023/10/12 16:08:53;;;;;;;0.10;0.10;;;;;;;;;;4959378;28;20046;-83
2023/10/12 16:11:19;;;;;;;0.10;0.10;;;;;;;;;;4942018;28;20026;-84
2023/10/12 16:13:45;;;;;;;0.10;0.10;;;;;;;;;;4972952;28;20498;-84
2023/10/12 16:16:12;;;;;;;0.10;0.10;;;;;;;;;;4974893;28;20105;-84
2023/10/12 16:18:41;;;;;;;0.10;0.10;;;;;;;;;;4959081;28;20497;-84
2023/10/12 16:21:08;;;;;;;0.10;0.10;;;;;;;;;;4992691;28;20100;-84
2023/10/12 16:23:34;;;;;;;0.10;0.10;;;;;;;;;;4959160;28;20119;-84
2023/10/12 16:26:00;;;;;;;0.10;0.10;;;;;;;;;;4958896;28;20089;-84
2023/10/12 16:28:28;;;;;;;0.10;0.10;;;;;;;;;;4975111;28;20038;-83
2023/10/12 16:30:57;;;;;;;0.10;0.10;;;;;;;;;;4959287;28;20046;-84
2023/10/12 16:33:23;;;;;;;0.10;0.10;;;;;;;;;;4976154;28;20097;-84
2023/10/12 16:35:49;;;;;;;0.30;0.30;;;;;;;;;;4996329;28;20038;-84
2023/10/12 16:38:15;;;;;;;0.10;0.10;;;;;;;;;;4946905;28;20121;-84
2023/10/12 16:40:45;;;;;;;0.10;0.10;;;;;;;;;;4962668;28;20121;-84
2023/10/12 16:43:14;;;;;;;0.10;0.10;;;;;;;;;;4962611;28;20085;-84
2023/10/12 16:45:40;;;;;;;0.10;0.10;;;;;;;;;;4962713;28;20434;-84
2023/10/12 16:48:08;;;;;;;0.10;0.10;;;;;;;;;;4962554;28;20492;-84
2023/10/12 16:50:35;;;;;;;0.13;0.13;;;;;;;;;;4962955;28;20046;-84
2023/10/12 16:53:01;;;;;;;0.10;0.10;;;;;;;;;;4978547;28;20487;-84
2023/10/12 16:55:27;;;;;;;0.10;0.10;;;;;;;;;;4978363;28;20049;-84
2023/10/12 16:57:55;;;;;;;0.10;0.10;;;;;;;;;;4978502;28;20049;-84
2023/10/12 17:00:22;;;;;;;0.10;0.10;;;;;;;;;;4996101;28;20050;-84
2023/10/12 17:02:50;;;;;;;0.10;0.10;;;;;;;;;;4962481;28;20053;-84
2023/10/12 17:05:19;;;;;;;0.10;0.10;;;;;;;;;;4978048;28;20084;-84
2023/10/12 17:07:46;;;;;;;0.10;0.10;;;;;;;;;;4978224;28;20043;-84